Time;durP1;ratioP1;P1;durP2;ratioP2;P2;SDS_P1;SDS_P2;PMS_P1;PMS_P2;Temp;Humidity;BMP_temperature;BMP_pressure;BME280_temperature;BME280_humidity;BME280_pressure;Samples;Min_cycle;Max_cycle;Signal;HPM_P1;HPM_P2
2024/04/09 00:01:20;;;;;;;28.17;4.88;;;;;;;16.73;58.85;96213.31;5433520;26;20516;-50
2024/04/09 00:03:47;;;;;;;25.95;4.70;;;;;;;16.55;60.85;96212.47;5442360;26;20517;-49
2024/04/09 00:06:14;;;;;;;22.08;3.55;;;;;;;16.35;61.61;96203.75;5421215;26;20019;-49
2024/04/09 00:08:45;;;;;;;18.98;3.75;;;;;;;16.25;62.41;96202.94;5434041;26;20015;-47
2024/04/09 00:11:22;;;;;;;18.60;4.45;;;;;;;16.06;63.80;96200.47;5429276;26;19995;-49
2024/04/09 00:13:51;;;;;;;18.33;3.35;;;;;;;15.89;66.35;96198.47;5431436;26;20010;-48
2024/04/09 00:16:22;;;;;;;20.90;3.80;;;;;;;15.68;68.85;96196.31;5412008;26;20008;-48
2024/04/09 00:18:55;;;;;;;16.30;4.20;;;;;;;15.60;68.78;96195.13;5416567;26;20007;-49
2024/04/09 00:21:23;;;;;;;21.27;3.88;;;;;;;15.60;68.59;96199.81;5434148;26;20013;-51
2024/04/09 00:23:50;;;;;;;16.02;3.05;;;;;;;15.52;70.44;96201.34;5418971;26;20692;-49
2024/04/09 00:26:17;;;;;;;19.58;3.60;;;;;;;15.52;69.95;96201.34;5424840;26;20472;-48
2024/04/09 00:28:44;;;;;;;21.15;4.05;;;;;;;15.58;70.15;96202.03;5417817;26;20017;-50
2024/04/09 00:31:11;;;;;;;22.08;4.43;;;;;;;15.55;69.58;96200.72;5433047;26;20646;-52
2024/04/09 00:33:38;;;;;;;17.23;3.75;;;;;;;15.46;70.34;96200.69;5430979;26;19999;-50
2024/04/09 00:36:05;;;;;;;16.75;3.97;;;;;;;15.34;71.32;96203.19;5428638;26;20003;-49
2024/04/09 00:38:33;;;;;;;15.10;3.88;;;;;;;15.31;71.25;96188.25;5429427;26;20017;-52
2024/04/09 00:40:59;;;;;;;21.65;4.53;;;;;;;15.24;72.49;96187.06;5429372;26;20023;-50
2024/04/09 00:43:26;;;;;;;21.88;3.60;;;;;;;15.17;72.81;96187.53;5432292;26;20071;-47
2024/04/09 00:45:55;;;;;;;18.25;3.22;;;;;;;15.11;72.50;96192.28;5425415;26;20007;-47
2024/04/09 00:48:22;;;;;;;18.00;3.80;;;;;;;15.15;72.02;96187.03;5414327;26;20010;-49
2024/04/09 00:50:50;;;;;;;23.08;3.67;;;;;;;15.10;73.15;96193.41;5431249;26;20679;-49
2024/04/09 00:53:18;;;;;;;18.92;4.05;;;;;;;15.20;71.21;96192.34;5434915;26;19999;-51
2024/04/09 00:55:49;;;;;;;21.73;3.63;;;;;;;15.32;70.27;96192.59;5414568;26;20011;-47
2024/04/09 00:58:18;;;;;;;16.60;4.05;;;;;;;15.12;76.52;96193.09;5429654;26;20079;-50
2024/04/09 01:00:44;;;;;;;17.17;3.05;;;;;;;14.97;75.42;96180.66;5427793;26;20003;-47
2024/04/09 01:03:12;;;;;;;17.60;3.03;;;;;;;14.79;77.82;96177.81;5430667;26;20021;-46
2024/04/09 01:05:39;;;;;;;14.93;3.58;;;;;;;14.79;77.39;96181.34;5430562;26;20040;-47
2024/04/09 01:08:06;;;;;;;16.77;3.22;;;;;;;14.88;75.26;96181.41;5426297;26;20007;-46
2024/04/09 01:10:32;;;;;;;16.35;3.10;;;;;;;14.91;75.98;96185.41;5426635;26;20018;-46
2024/04/09 01:12:59;;;;;;;19.98;3.33;;;;;;;14.88;76.58;96184.13;5433196;26;20003;-47
2024/04/09 01:15:26;;;;;;;15.90;3.63;;;;;;;15.03;74.58;96173.94;5430197;26;20013;-49
2024/04/09 01:17:52;;;;;;;18.58;4.13;;;;;;;15.25;72.46;96175.06;5415966;26;20736;-51
2024/04/09 01:20:19;;;;;;;24.33;5.00;;;;;;;15.42;72.24;96175.16;5429124;26;20573;-50
2024/04/09 01:22:47;;;;;;;18.90;3.45;;;;;;;15.30;72.17;96178.44;5425672;26;20042;-51
2024/04/09 01:25:14;;;;;;;16.92;4.32;;;;;;;15.22;73.62;96176.47;5432760;26;20083;-54
2024/04/09 01:27:41;;;;;;;29.67;5.57;;;;;;;15.24;72.98;96179.72;5399857;26;20022;-51
2024/04/09 01:30:09;;;;;;;21.48;4.45;;;;;;;15.24;72.34;96184.34;5425312;26;20450;-52
2024/04/09 01:32:39;;;;;;;21.20;3.67;;;;;;;15.28;71.06;96180.69;5421511;26;20003;-50
2024/04/09 01:35:07;;;;;;;14.27;3.70;;;;;;;15.36;70.01;96181.84;5425992;26;20499;-53
2024/04/09 01:37:34;;;;;;;16.00;4.18;;;;;;;15.46;69.89;96173.44;5421670;26;20420;-50
2024/04/09 01:40:01;;;;;;;24.00;3.28;;;;;;;15.64;67.24;96176.22;5423385;26;20034;-52
2024/04/09 01:42:28;;;;;;;16.70;4.30;;;;;;;15.55;70.55;96180.84;5416464;26;20003;-51
2024/04/09 01:44:55;;;;;;;21.05;3.58;;;;;;;15.81;65.49;96174.69;5408334;26;20413;-51
2024/04/09 01:47:22;;;;;;;17.58;3.17;;;;;;;15.92;66.66;96181.44;5416336;26;20482;-49
2024/04/09 01:49:48;;;;;;;20.13;3.15;;;;;;;15.80;67.75;96183.97;5424631;26;19998;-51
2024/04/09 01:52:15;;;;;;;19.63;3.88;;;;;;;15.76;68.07;96191.19;5416823;26;20011;-49
2024/04/09 01:54:47;;;;;;;23.80;3.63;;;;;;;15.76;68.65;96191.19;5430599;26;20046;-54
2024/04/09 01:57:14;;;;;;;;;;;;;;;15.76;68.52;96188.47;5421305;26;20087;-51
2024/04/09 01:59:41;;;;;;;13.65;3.50;;;;;;;15.64;70.61;96191.78;5438112;26;19932;-49
2024/04/09 02:02:09;;;;;;;24.23;3.88;;;;;;;15.55;71.00;96200.72;5420409;26;20012;-48
2024/04/09 02:04:35;;;;;;;21.05;3.60;;;;;;;15.52;72.33;96197.84;5419318;26;19998;-47
2024/04/09 02:07:02;;;;;;;20.02;3.30;;;;;;;15.63;69.93;96201.09;5444141;26;20153;-48
2024/04/09 02:09:29;;;;;;;20.60;4.35;;;;;;;15.55;71.75;96208.13;5423274;26;20016;-47
2024/04/09 02:11:55;;;;;;;19.73;3.72;;;;;;;15.48;71.74;96203.91;5421390;26;19998;-52
2024/04/09 02:14:22;;;;;;;17.55;3.05;;;;;;;15.39;72.84;96205.78;5433729;26;20718;-53
2024/04/09 02:16:50;;;;;;;22.88;3.03;;;;;;;15.30;74.23;96207.66;5433019;26;20545;-53
2024/04/09 02:19:16;;;;;;;21.85;5.18;;;;;;;15.25;74.77;96192.22;5441414;26;20045;-51
2024/04/09 02:21:43;;;;;;;20.25;4.55;;;;;;;15.25;73.51;96194.16;5424040;26;20007;-51
2024/04/09 02:24:10;;;;;;;21.42;5.65;;;;;;;15.21;73.02;96191.22;5431073;26;20003;-51
2024/04/09 02:26:36;;;;;;;23.98;6.32;;;;;;;15.42;69.51;96198.91;5419654;26;20712;-51
2024/04/09 02:29:03;;;;;;;20.83;6.72;;;;;;;15.71;66.54;96203.84;5439339;26;20003;-53
2024/04/09 02:31:29;;;;;;;25.33;6.35;;;;;;;15.82;65.60;96198.13;5419281;26;20004;-52
2024/04/09 02:33:56;;;;;;;30.38;6.75;;;;;;;15.84;66.76;96193.16;5436027;26;19995;-50
2024/04/09 02:36:23;;;;;;;25.83;7.05;;;;;;;15.80;66.06;96190.25;5418634;26;20021;-48
2024/04/09 02:38:50;;;;;;;20.92;5.75;;;;;;;15.80;67.22;96200.34;5426406;26;19995;-47
2024/04/09 02:41:17;;;;;;;16.75;3.42;;;;;;;16.52;57.19;96195.59;5430593;26;19998;-50
2024/04/09 02:43:44;;;;;;;23.40;5.07;;;;;;;16.52;59.74;96198.31;5422737;26;20011;-47
2024/04/09 02:46:10;;;;;;;17.80;4.22;;;;;;;16.34;61.92;96205.69;5418944;26;20026;-47
2024/04/09 02:48:37;;;;;;;20.10;4.80;;;;;;;16.28;62.97;96219.81;5418284;26;19999;-49
2024/04/09 02:51:05;;;;;;;28.98;6.05;;;;;;;16.33;59.79;96225.94;5434997;26;20014;-51
2024/04/09 02:53:35;;;;;;;21.73;5.15;;;;;;;16.46;59.44;96226.94;5430993;26;20008;-49
2024/04/09 02:56:07;;;;;;;27.90;4.70;;;;;;;16.57;58.76;96223.88;5429464;26;20712;-51
2024/04/09 02:58:34;;;;;;;19.48;3.53;;;;;;;16.58;55.22;96211.84;5424793;26;20003;-50
2024/04/09 03:01:06;;;;;;;33.15;6.20;;;;;;;17.28;52.58;96222.78;5412887;26;20022;-54
2024/04/09 03:03:35;;;;;;;24.35;5.10;;;;;;;17.57;51.16;96223.19;5425736;26;20009;-47
2024/04/09 03:06:07;;;;;;;19.92;3.65;;;;;;;18.03;49.26;96228.22;5413461;26;20681;-53
2024/04/09 03:08:34;;;;;;;25.27;4.85;;;;;;;17.97;50.46;96235.81;5435644;26;20046;-54
2024/04/09 03:11:01;;;;;;;21.65;5.10;;;;;;;18.06;50.79;96242.03;5435542;26;20021;-54
2024/04/09 03:13:28;;;;;;;22.85;4.47;;;;;;;18.13;50.50;96241.56;5415670;26;20518;-50
2024/04/09 03:15:55;;;;;;;18.67;4.10;;;;;;;18.23;49.61;96243.13;5423359;26;20013;-52
2024/04/09 03:18:22;;;;;;;22.50;5.30;;;;;;;18.23;49.96;96234.91;5423276;26;20819;-51
2024/04/09 03:20:57;;;;;;;25.55;4.13;;;;;;;18.07;51.15;96242.84;5426224;26;20075;-50
2024/04/09 03:23:24;;;;;;;26.05;4.93;;;;;;;18.07;51.47;96240.91;5422305;26;20048;-54
2024/04/09 03:25:50;;;;;;;16.80;3.85;;;;;;;18.00;51.27;96242.56;5430222;26;20506;-52
2024/04/09 03:28:17;;;;;;;24.98;4.72;;;;;;;17.86;54.01;96250.97;5403304;26;20008;-52
2024/04/09 03:30:43;;;;;;;31.95;4.72;;;;;;;17.70;53.58;96257.00;5417755;26;20080;-53
2024/04/09 03:33:10;;;;;;;23.00;4.82;;;;;;;17.53;55.88;96264.13;5425441;26;20014;-49
2024/04/09 03:35:37;;;;;;;24.48;4.88;;;;;;;17.31;56.18;96258.84;5424888;26;20009;-52
2024/04/09 03:38:04;;;;;;;23.95;4.50;;;;;;;17.26;56.24;96259.81;5428165;26;20007;-54
2024/04/09 03:40:31;;;;;;;23.52;4.95;;;;;;;17.42;53.69;96266.38;5434535;26;20480;-52
2024/04/09 03:42:58;;;;;;;24.35;5.03;;;;;;;17.76;51.37;96258.41;5418658;26;20010;-50
2024/04/09 03:45:26;;;;;;;23.58;4.75;;;;;;;18.09;49.78;96267.22;5426484;26;20006;-50
2024/04/09 03:47:52;;;;;;;26.83;4.38;;;;;;;18.45;48.39;96265.91;5423354;26;20018;-47
2024/04/09 03:50:19;;;;;;;29.30;4.35;;;;;;;18.55;48.00;96271.00;5413356;26;20000;-48
2024/04/09 03:52:46;;;;;;;31.50;5.07;;;;;;;18.46;48.43;96270.25;5422768;26;20021;-48
2024/04/09 03:55:12;;;;;;;25.45;4.82;;;;;;;18.31;49.79;96269.69;5427664;26;19999;-47
2024/04/09 03:57:40;;;;;;;23.20;3.72;;;;;;;18.29;49.96;96282.09;5433287;26;20014;-50
2024/04/09 04:00:11;;;;;;;22.50;4.75;;;;;;;18.21;51.12;96294.72;5433256;26;20010;-54
2024/04/09 04:02:39;;;;;;;;;;;;;;;18.13;50.67;96296.34;5435627;26;20525;-52
2024/04/09 04:05:06;;;;;;;21.95;3.70;;;;;;;18.02;52.32;96303.28;5418925;26;19952;-50
2024/04/09 04:07:32;;;;;;;25.42;4.47;;;;;;;17.90;53.26;96301.22;5435017;26;20000;-53
2024/04/09 04:09:59;;;;;;;15.10;3.53;;;;;;;17.82;52.63;96311.06;5419566;26;20013;-51
2024/04/09 04:12:25;;;;;;;24.00;3.05;;;;;;;17.64;54.51;96302.88;5421303;26;19999;-49
2024/04/09 04:14:52;;;;;;;18.05;4.20;;;;;;;17.57;55.01;96296.31;5427717;26;20478;-50
2024/04/09 04:17:19;;;;;;;13.93;2.92;;;;;;;17.44;56.34;96304.38;5424673;26;20422;-50
2024/04/09 04:19:46;;;;;;;13.02;2.70;;;;;;;17.37;57.10;96312.25;5433760;26;20003;-52
2024/04/09 04:22:13;;;;;;;14.30;3.13;;;;;;;17.29;57.72;96331.06;5421422;26;20015;-51
2024/04/09 04:24:39;;;;;;;16.02;3.13;;;;;;;17.20;58.50;96338.47;5425770;26;20003;-48
2024/04/09 04:27:06;;;;;;;12.88;2.53;;;;;;;17.05;58.94;96338.94;5422792;26;20043;-48
2024/04/09 04:29:33;;;;;;;13.80;4.05;;;;;;;16.98;59.99;96344.84;5438450;26;20013;-49
2024/04/09 04:32:00;;;;;;;18.23;3.25;;;;;;;16.88;60.49;96354.19;5421465;26;20427;-49
2024/04/09 04:34:27;;;;;;;15.07;2.25;;;;;;;16.86;60.58;96362.69;5425326;26;20775;-46
2024/04/09 04:36:53;;;;;;;10.13;1.98;;;;;;;16.75;62.11;96361.38;5429594;26;20738;-48
2024/04/09 04:39:20;;;;;;;12.35;2.10;;;;;;;16.70;62.24;96378.72;5425651;26;20107;-48
2024/04/09 04:41:47;;;;;;;10.65;2.50;;;;;;;16.59;63.14;96391.84;5430918;26;20475;-50
2024/04/09 04:44:14;;;;;;;12.27;2.38;;;;;;;16.49;64.54;96406.63;5429240;26;20011;-48
2024/04/09 04:46:41;;;;;;;14.60;2.97;;;;;;;16.45;64.57;96399.34;5427560;26;20014;-49
2024/04/09 04:49:07;;;;;;;8.68;1.40;;;;;;;16.35;65.63;96401.25;5438226;26;20008;-49
2024/04/09 04:51:34;;;;;;;7.82;2.00;;;;;;;16.28;65.97;96403.59;5437975;26;20209;-50
2024/04/09 04:54:01;;;;;;;10.60;2.13;;;;;;;16.17;66.95;96402.25;5444627;26;20374;-48
2024/04/09 04:56:27;;;;;;;14.05;2.50;;;;;;;16.15;67.47;96404.50;5429971;26;20076;-50
2024/04/09 04:58:54;;;;;;;13.63;2.22;;;;;;;16.01;68.68;96407.31;5422528;26;20003;-52
2024/04/09 05:01:20;;;;;;;12.20;2.03;;;;;;;15.92;69.02;96429.84;5414111;26;20478;-51
2024/04/09 05:03:47;;;;;;;9.95;1.70;;;;;;;15.83;70.67;96432.53;5428473;26;20054;-53
2024/04/09 05:06:14;;;;;;;7.53;1.40;;;;;;;15.80;70.86;96432.34;5423475;26;19999;-49
2024/04/09 05:08:41;;;;;;;10.48;1.60;;;;;;;15.81;71.27;96432.03;5428719;26;20026;-50
2024/04/09 05:11:10;;;;;;;6.55;1.88;;;;;;;15.73;71.05;96441.78;5418691;26;20004;-50
2024/04/09 05:13:37;;;;;;;11.15;1.85;;;;;;;15.60;72.97;96451.59;5435720;26;20003;-50
2024/04/09 05:16:04;;;;;;;7.03;1.20;;;;;;;15.56;73.46;96449.81;5420100;26;20040;-51
2024/04/09 05:18:30;;;;;;;7.82;1.60;;;;;;;15.52;75.13;96457.00;5426686;26;20009;-49
2024/04/09 05:20:57;;;;;;;6.70;1.42;;;;;;;15.52;75.17;96457.78;5397657;26;20008;-54
2024/04/09 05:23:24;;;;;;;6.68;1.40;;;;;;;15.46;75.65;96461.75;5427584;26;20014;-54
2024/04/09 05:25:51;;;;;;;5.72;1.30;;;;;;;15.37;77.13;96480.75;5432806;26;20484;-55
2024/04/09 05:28:17;;;;;;;9.35;1.10;;;;;;;15.31;78.50;96477.34;5432747;26;20400;-54
2024/04/09 05:30:44;;;;;;;8.68;1.20;;;;;;;15.32;78.88;96478.13;5426930;26;20039;-54
2024/04/09 05:33:11;;;;;;;6.45;1.23;;;;;;;15.28;78.68;96485.31;5433002;26;20017;-55
2024/04/09 05:35:37;;;;;;;7.07;1.67;;;;;;;15.26;79.88;96485.59;5425089;26;20083;-52
2024/04/09 05:38:04;;;;;;;7.70;1.63;;;;;;;15.26;79.85;96498.44;5420969;26;20006;-52
2024/04/09 05:40:33;;;;;;;6.75;1.10;;;;;;;15.28;81.06;96504.41;5425926;26;20002;-55
2024/04/09 05:43:00;;;;;;;6.72;0.95;;;;;;;15.24;81.89;96512.38;5432321;26;20750;-49
2024/04/09 05:45:26;;;;;;;9.18;2.17;;;;;;;15.16;82.86;96519.38;5428773;26;20003;-51
2024/04/09 05:47:54;;;;;;;4.85;1.27;;;;;;;15.25;82.36;96515.94;5430788;26;20038;-53
2024/04/09 05:50:21;;;;;;;5.05;0.90;;;;;;;15.23;82.71;96520.88;5427803;26;20171;-55
2024/04/09 05:52:47;;;;;;;10.10;1.08;;;;;;;15.07;84.24;96510.25;5417388;26;20423;-54
2024/04/09 05:55:14;;;;;;;4.68;1.30;;;;;;;15.07;84.36;96524.69;5434552;26;20378;-55
2024/04/09 05:57:41;;;;;;;7.95;1.33;;;;;;;15.04;86.06;96532.69;5427984;26;20505;-55
2024/04/09 06:00:14;;;;;;;5.95;1.15;;;;;;;15.12;84.85;96536.63;5421098;26;20004;-55
2024/04/09 06:02:45;;;;;;;6.82;1.50;;;;;;;15.20;84.41;96533.19;5433250;26;20007;-51
2024/04/09 06:05:15;;;;;;;5.13;1.00;;;;;;;15.24;85.44;96527.94;5427077;26;19999;-52
2024/04/09 06:07:44;;;;;;;8.95;1.27;;;;;;;15.22;86.42;96547.31;5423838;26;20080;-54
2024/04/09 06:10:14;;;;;;;3.10;1.02;;;;;;;15.18;86.81;96557.22;5427485;26;20474;-54
2024/04/09 06:12:41;;;;;;;2.38;0.70;;;;;;;15.08;89.04;96560.97;5424567;26;20010;-54
2024/04/09 06:15:08;;;;;;;6.32;1.33;;;;;;;15.03;90.52;96558.31;5430548;26;20013;-55
2024/04/09 06:17:34;;;;;;;5.70;1.33;;;;;;;15.01;91.69;96558.63;5418834;26;20003;-52
2024/04/09 06:20:01;;;;;;;10.02;1.58;;;;;;;15.02;91.68;96565.69;5433819;26;20030;-51
2024/04/09 06:22:28;;;;;;;4.30;1.05;;;;;;;15.21;91.65;96570.25;5426682;26;20014;-55
2024/04/09 06:24:55;;;;;;;7.15;1.23;;;;;;;15.45;90.23;96567.31;5420528;26;20601;-54
2024/04/09 06:27:21;;;;;;;5.18;1.50;;;;;;;15.64;90.41;96579.25;5421407;26;20004;-52
2024/04/09 06:29:48;;;;;;;6.65;1.17;;;;;;;15.92;88.01;96580.00;5434557;26;19998;-55
2024/04/09 06:32:15;;;;;;;4.70;1.23;;;;;;;15.74;90.39;96595.41;5419530;26;20511;-52
2024/04/09 06:34:42;;;;;;;4.85;1.13;;;;;;;15.88;88.69;96592.63;5421623;26;20083;-50
2024/04/09 06:37:09;;;;;;;7.65;1.48;;;;;;;15.62;91.05;96622.41;5418079;26;20007;-51
2024/04/09 06:39:36;;;;;;;11.23;1.80;;;;;;;15.58;91.33;96614.00;5431217;26;20010;-52
2024/04/09 06:42:03;;;;;;;7.70;1.33;;;;;;;15.23;94.84;96605.41;5429714;26;20751;-49
2024/04/09 06:44:31;;;;;;;5.57;1.10;;;;;;;15.47;94.00;96603.28;5419388;26;19999;-53
2024/04/09 06:46:58;;;;;;;7.15;2.25;;;;;;;15.15;96.51;96618.59;5423807;26;20011;-52
2024/04/09 06:49:25;;;;;;;8.43;1.33;;;;;;;15.04;99.00;96614.47;5428515;26;20011;-52
2024/04/09 06:51:52;;;;;;;13.65;1.70;;;;;;;15.03;99.99;96629.19;5415082;26;20018;-53
2024/04/09 06:54:18;;;;;;;7.47;1.58;;;;;;;15.00;100.00;96625.13;5419304;26;20566;-55
2024/04/09 06:56:45;;;;;;;8.45;1.38;;;;;;;14.93;100.00;96630.97;5426801;26;20018;-53
2024/04/09 06:59:11;;;;;;;7.22;1.40;;;;;;;14.84;100.00;96630.06;5420356;26;20010;-54
2024/04/09 07:01:38;;;;;;;5.13;1.23;;;;;;;14.84;100.00;96630.06;5427003;26;20019;-54
2024/04/09 07:04:05;;;;;;;7.47;1.45;;;;;;;14.77;100.00;96635.88;5424124;26;20003;-54
2024/04/09 07:06:32;;;;;;;6.57;1.30;;;;;;;14.72;100.00;96638.66;5428402;26;20003;-53
2024/04/09 07:09:02;;;;;;;6.93;1.27;;;;;;;14.59;100.00;96670.19;5432025;26;20022;-55
2024/04/09 07:11:29;;;;;;;6.07;1.42;;;;;;;14.33;100.00;96673.28;5434191;26;20539;-55
2024/04/09 07:13:56;;;;;;;5.30;1.70;;;;;;;14.22;100.00;96677.25;5420583;26;20006;-54
2024/04/09 07:16:23;;;;;;;4.28;1.08;;;;;;;14.23;100.00;96687.03;5425548;26;20011;-56
2024/04/09 07:18:50;;;;;;;4.93;1.20;;;;;;;13.96;100.00;96686.56;5425122;26;20442;-54
2024/04/09 07:21:17;;;;;;;5.25;1.23;;;;;;;13.79;100.00;96695.19;5431240;26;20001;-56
2024/04/09 07:23:46;;;;;;;2.70;1.23;;;;;;;13.69;100.00;96698.03;5423158;26;20018;-51
2024/04/09 07:26:13;;;;;;;2.55;0.90;;;;;;;13.55;100.00;96706.03;5401388;26;20017;-51
2024/04/09 07:28:40;;;;;;;3.35;1.15;;;;;;;13.45;100.00;96718.63;5405796;26;20084;-51
2024/04/09 07:31:08;;;;;;;8.25;0.70;;;;;;;13.27;100.00;96736.47;5428658;26;20007;-52
2024/04/09 07:33:35;;;;;;;2.67;0.60;;;;;;;12.76;100.00;96746.66;5426133;26;20069;-54
2024/04/09 07:36:03;;;;;;;1.33;0.40;;;;;;;12.73;100.00;96749.91;5440438;26;20008;-48
2024/04/09 07:38:30;;;;;;;3.92;0.60;;;;;;;12.56;100.00;96772.00;5424305;26;20044;-53
2024/04/09 07:40:56;;;;;;;1.17;0.40;;;;;;;12.61;100.00;96774.72;5421688;26;20017;-53
2024/04/09 07:43:23;;;;;;;0.35;0.20;;;;;;;12.29;100.00;96776.75;5427723;26;20013;-46
2024/04/09 07:45:53;;;;;;;2.58;0.20;;;;;;;11.87;100.00;96813.19;5421432;26;20019;-54
2024/04/09 07:48:21;;;;;;;2.88;0.65;;;;;;;11.49;100.00;96821.63;5416684;26;20015;-53
2024/04/09 07:50:48;;;;;;;0.40;0.30;;;;;;;11.26;100.00;96821.91;5427581;26;20018;-53
2024/04/09 07:53:15;;;;;;;0.52;0.50;;;;;;;11.36;100.00;96823.00;5422233;26;19999;-56
2024/04/09 07:55:42;;;;;;;1.10;0.20;;;;;;;11.23;100.00;96824.31;5431332;26;20019;-56
2024/04/09 07:58:08;;;;;;;1.50;0.30;;;;;;;11.32;100.00;96849.84;5422210;26;20765;-54
2024/04/09 08:00:36;;;;;;;0.93;0.20;;;;;;;11.20;100.00;96855.50;5419809;26;20404;-53
2024/04/09 08:03:03;;;;;;;2.70;0.30;;;;;;;11.16;100.00;96848.97;5422460;26;20003;-52
2024/04/09 08:05:31;;;;;;;1.27;0.38;;;;;;;11.31;100.00;96864.44;5426454;26;20014;-54
2024/04/09 08:07:58;;;;;;;0.25;0.13;;;;;;;11.35;100.00;96870.16;5434744;26;20013;-57
2024/04/09 08:10:25;;;;;;;0.15;0.10;;;;;;;11.21;100.00;96878.81;5424695;26;20011;-54
2024/04/09 08:12:57;;;;;;;4.25;0.50;;;;;;;11.40;100.00;96878.28;5415286;26;20014;-55
2024/04/09 08:15:24;;;;;;;3.47;0.40;;;;;;;11.32;100.00;96879.66;5439398;26;20017;-56
2024/04/09 08:17:50;;;;;;;1.45;0.20;;;;;;;11.36;99.92;96888.06;5418163;26;20469;-56
2024/04/09 08:20:17;;;;;;;0.85;0.25;;;;;;;11.25;100.00;96895.34;5421458;26;20014;-55
2024/04/09 08:22:47;;;;;;;2.03;0.30;;;;;;;11.30;99.11;96909.72;5411779;26;20039;-54
2024/04/09 08:25:15;;;;;;;5.10;0.35;;;;;;;11.23;98.74;96928.13;5431647;26;20017;-55
2024/04/09 08:27:42;;;;;;;0.20;0.20;;;;;;;10.75;100.00;96936.34;5427091;26;20451;-55
2024/04/09 08:30:12;;;;;;;1.25;0.20;;;;;;;10.72;100.00;96948.53;5432751;26;20002;-55
2024/04/09 08:32:40;;;;;;;1.10;0.65;;;;;;;10.65;100.00;96937.16;5425499;26;20093;-54
2024/04/09 08:35:07;;;;;;;0.90;0.40;;;;;;;10.51;100.00;96948.41;5430142;26;20010;-55
2024/04/09 08:37:34;;;;;;;1.67;0.28;;;;;;;10.69;100.00;96973.41;5429125;26;20010;-55
2024/04/09 08:40:01;;;;;;;2.53;0.30;;;;;;;10.36;100.00;96972.66;5426788;26;20009;-58
2024/04/09 08:42:28;;;;;;;0.20;0.10;;;;;;;10.51;100.00;96980.09;5427624;26;20736;-58
2024/04/09 08:44:57;;;;;;;1.20;0.20;;;;;;;10.51;100.00;96990.94;5436067;26;20010;-61
2024/04/09 08:47:24;;;;;;;0.50;0.20;;;;;;;10.53;98.39;96999.59;5419527;26;20942;-62
2024/04/09 08:49:55;;;;;;;4.20;0.40;;;;;;;10.51;96.73;97007.16;5426104;26;20042;-57
2024/04/09 08:52:29;;;;;;;0.13;0.08;;;;;;;10.20;100.00;97012.31;5431473;26;20454;-59
2024/04/09 08:54:56;;;;;;;2.75;0.17;;;;;;;10.21;100.00;97011.25;5427629;26;20013;-59
2024/04/09 08:57:22;;;;;;;6.25;0.52;;;;;;;9.98;100.00;97024.03;5418715;26;20550;-58
2024/04/09 08:59:49;;;;;;;3.72;0.60;;;;;;;9.85;100.00;97017.16;5425076;26;20006;-58
2024/04/09 09:02:17;;;;;;;2.85;0.25;;;;;;;10.02;100.00;97009.75;5431467;26;20026;-58
2024/04/09 09:04:45;;;;;;;3.30;0.40;;;;;;;9.72;99.35;97019.19;5428557;26;20017;-57
2024/04/09 09:07:17;;;;;;;1.45;0.25;;;;;;;9.63;99.72;97010.72;5424434;26;20007;-58
2024/04/09 09:09:44;;;;;;;2.08;0.40;;;;;;;9.53;100.00;97023.31;5424898;26;20540;-58
2024/04/09 09:12:11;;;;;;;1.52;0.28;;;;;;;9.42;99.64;97038.59;5421291;26;20021;-60
2024/04/09 09:14:38;;;;;;;0.98;0.22;;;;;;;9.30;99.06;97041.44;5427450;26;20017;-62
2024/04/09 09:17:07;;;;;;;2.28;0.25;;;;;;;9.27;99.28;97053.56;5426208;26;20009;-59
2024/04/09 09:19:34;;;;;;;1.90;0.40;;;;;;;9.29;99.29;97064.94;5424115;26;20050;-60
2024/04/09 09:22:04;;;;;;;0.30;0.20;;;;;;;9.20;99.91;97040.25;5422865;26;20047;-59
2024/04/09 09:24:31;;;;;;;2.42;0.30;;;;;;;9.18;99.74;97041.56;5428324;26;20002;-58
2024/04/09 09:27:02;;;;;;;2.15;0.50;;;;;;;9.39;100.00;97042.63;5421800;26;19998;-61
2024/04/09 09:29:29;;;;;;;3.92;0.40;;;;;;;9.53;99.89;97053.03;5431463;26;19998;-59
2024/04/09 09:31:56;;;;;;;1.05;0.30;;;;;;;9.23;100.00;97072.19;5427179;26;20038;-59
2024/04/09 09:34:37;;;;;;;1.83;0.20;;;;;;;9.10;100.00;97059.00;5431783;26;20002;-59
2024/04/09 09:37:10;;;;;;;0.80;0.30;;;;;;;9.34;100.00;97065.03;5430534;26;20003;-59
2024/04/09 09:39:40;;;;;;;0.52;0.28;;;;;;;9.29;100.00;97072.25;5424982;26;20003;-59
2024/04/09 09:42:10;;;;;;;4.07;0.73;;;;;;;9.16;100.00;97076.09;5422437;26;20763;-59
2024/04/09 09:44:42;;;;;;;2.78;0.45;;;;;;;9.33;100.00;97078.78;5421033;26;20948;-59
2024/04/09 09:47:08;;;;;;;2.28;0.40;;;;;;;9.23;100.00;97092.97;5424348;26;20015;-62
2024/04/09 09:49:35;;;;;;;1.10;0.20;;;;;;;9.27;100.00;97095.97;5430035;26;19994;-61
2024/04/09 09:52:03;;;;;;;1.42;0.28;;;;;;;8.95;100.00;97100.13;5427999;26;20048;-62
2024/04/09 09:54:29;;;;;;;1.88;0.40;;;;;;;8.87;100.00;97105.94;5439810;26;20010;-61
2024/04/09 09:57:04;;;;;;;3.13;0.75;;;;;;;8.85;100.00;97130.53;5426102;26;20003;-61
2024/04/09 09:59:36;;;;;;;2.10;0.80;;;;;;;8.52;100.00;97138.31;5428233;26;20003;-61
2024/04/09 10:02:05;;;;;;;0.85;0.63;;;;;;;8.74;100.00;97151.16;5427626;26;20018;-61
2024/04/09 10:04:31;;;;;;;4.20;1.08;;;;;;;8.63;100.00;97147.47;5428775;26;19999;-61
2024/04/09 10:07:01;;;;;;;0.82;0.30;;;;;;;8.75;100.00;97165.44;5425292;26;20385;-61
2024/04/09 10:09:51;;;;;;;1.13;0.30;;;;;;;8.85;100.00;97161.03;5432560;26;20135;-61
2024/04/09 10:12:23;;;;;;;1.48;0.30;;;;;;;8.97;100.00;97168.22;5435317;26;20406;-62
2024/04/09 10:15:09;;;;;;;;;;;;;;;8.92;100.00;97158.16;5434125;26;19999;-62
2024/04/09 10:18:03;;;;;;;1.05;0.40;;;;;;;8.85;100.00;97165.63;5430736;26;20397;-61
2024/04/09 10:20:35;;;;;;;7.13;0.50;;;;;;;8.72;100.00;97172.16;5426760;26;20686;-61
2024/04/09 10:23:04;;;;;;;2.80;0.40;;;;;;;8.38;100.00;97174.78;5439776;26;20051;-61
2024/04/09 10:25:41;;;;;;;5.82;0.40;;;;;;;8.15;100.00;97166.53;5429100;26;19999;-63
2024/04/09 10:28:10;;;;;;;1.02;0.40;;;;;;;8.24;100.00;97171.56;5420537;26;20054;-60
2024/04/09 10:30:39;;;;;;;1.13;0.28;;;;;;;8.28;100.00;97178.94;5412790;26;20019;-62
2024/04/09 10:33:08;;;;;;;4.63;0.52;;;;;;;8.59;100.00;97168.69;5421592;26;20018;-60
2024/04/09 10:35:36;;;;;;;2.17;0.82;;;;;;;8.55;100.00;97175.66;5414059;26;20086;-62
2024/04/09 10:38:06;;;;;;;1.88;0.57;;;;;;;8.55;100.00;97172.16;5378913;26;20072;-62
2024/04/09 10:40:34;;;;;;;1.70;0.33;;;;;;;8.43;100.00;97189.19;5422586;26;20409;-63
2024/04/09 10:43:05;;;;;;;1.95;0.50;;;;;;;8.54;100.00;97184.81;5428548;26;20231;-63
2024/04/09 10:45:32;;;;;;;2.17;0.30;;;;;;;8.32;100.00;97193.56;5427637;26;20006;-62
2024/04/09 10:48:01;;;;;;;3.15;0.60;;;;;;;8.42;100.00;97206.44;5430603;26;20006;-62
2024/04/09 10:50:28;;;;;;;0.90;0.60;;;;;;;8.38;100.00;97199.06;5421828;26;20037;-63
2024/04/09 10:52:55;;;;;;;1.85;0.40;;;;;;;8.50;100.00;97202.53;5429209;26;20002;-63
2024/04/09 10:55:22;;;;;;;0.80;0.30;;;;;;;8.41;100.00;97203.97;5434653;26;20003;-64
2024/04/09 10:57:53;;;;;;;1.85;0.50;;;;;;;8.48;100.00;97206.53;5426303;26;20249;-64
2024/04/09 11:00:21;;;;;;;2.85;0.57;;;;;;;8.45;100.00;97213.22;5416642;26;20015;-63
2024/04/09 11:02:48;;;;;;;1.58;0.30;;;;;;;8.49;100.00;97221.66;5409887;26;20599;-62
2024/04/09 11:05:17;;;;;;;0.88;0.38;;;;;;;8.36;100.00;97228.97;5419595;26;20011;-61
2024/04/09 11:07:46;;;;;;;5.97;0.88;;;;;;;8.26;100.00;97224.19;5426135;26;20011;-62
2024/04/09 11:10:19;;;;;;;1.95;0.38;;;;;;;8.12;100.00;97207.50;5419682;26;20037;-62
2024/04/09 11:12:53;;;;;;;1.25;0.22;;;;;;;8.25;100.00;97237.94;5430823;26;20034;-61
2024/04/09 11:15:21;;;;;;;2.20;0.50;;;;;;;8.14;100.00;97245.03;5422421;26;20011;-61
2024/04/09 11:17:47;;;;;;;2.00;0.30;;;;;;;8.25;100.00;97251.44;5427940;26;20046;-63
2024/04/09 11:20:18;;;;;;;3.03;0.20;;;;;;;8.34;100.00;97241.91;5419464;26;20000;-63
2024/04/09 11:22:46;;;;;;;2.13;0.43;;;;;;;8.12;100.00;97231.78;5431462;26;20006;-63
2024/04/09 11:25:14;;;;;;;2.80;0.40;;;;;;;8.31;100.00;97234.28;5425350;26;20006;-63
2024/04/09 11:27:50;;;;;;;0.68;0.30;;;;;;;8.51;99.15;97238.44;5420700;26;20007;-63
2024/04/09 11:30:24;;;;;;;1.88;0.57;;;;;;;8.59;100.00;97246.16;5419671;26;20068;-64
2024/04/09 11:32:55;;;;;;;2.22;0.47;;;;;;;8.54;98.87;97262.25;5417339;26;20143;-61